sensor_id;sensor_type;location;lat;lon;timestamp;P1;durP1;ratioP1;P2;durP2;ratioP2
18702;SDS011;9481;48.796;9.210;2022-08-21T00:01:26;2.50;;;1.90;;
18702;SDS011;9481;48.796;9.210;2022-08-21T00:03:54;2.63;;;1.67;;
18702;SDS011;9481;48.796;9.210;2022-08-21T00:06:21;2.93;;;1.90;;
18702;SDS011;9481;48.796;9.210;2022-08-21T00:08:48;2.73;;;1.60;;
18702;SDS011;9481;48.796;9.210;2022-08-21T00:11:15;3.07;;;1.83;;
18702;SDS011;9481;48.796;9.210;2022-08-21T00:13:41;3.63;;;1.70;;
18702;SDS011;9481;48.796;9.210;2022-08-21T00:16:07;2.90;;;1.83;;
18702;SDS011;9481;48.796;9.210;2022-08-21T00:18:33;2.63;;;1.67;;
18702;SDS011;9481;48.796;9.210;2022-08-21T00:20:59;4.70;;;1.80;;
18702;SDS011;9481;48.796;9.210;2022-08-21T00:23:25;2.00;;;1.47;;
18702;SDS011;9481;48.796;9.210;2022-08-21T00:25:50;2.60;;;1.70;;
18702;SDS011;9481;48.796;9.210;2022-08-21T00:28:16;1.80;;;1.60;;
18702;SDS011;9481;48.796;9.210;2022-08-21T00:30:43;3.13;;;1.87;;
18702;SDS011;9481;48.796;9.210;2022-08-21T00:33:10;3.63;;;1.73;;
18702;SDS011;9481;48.796;9.210;2022-08-21T00:35:39;2.67;;;1.77;;
18702;SDS011;9481;48.796;9.210;2022-08-21T00:38:07;3.67;;;2.00;;
18702;SDS011;9481;48.796;9.210;2022-08-21T00:43:24;3.27;;;1.83;;
18702;SDS011;9481;48.796;9.210;2022-08-21T00:45:55;3.03;;;1.63;;
18702;SDS011;9481;48.796;9.210;2022-08-21T00:48:23;3.53;;;1.93;;
18702;SDS011;9481;48.796;9.210;2022-08-21T00:50:52;3.20;;;1.80;;
18702;SDS011;9481;48.796;9.210;2022-08-21T00:54:03;3.77;;;1.80;;
18702;SDS011;9481;48.796;9.210;2022-08-21T00:56:32;3.67;;;1.90;;
18702;SDS011;9481;48.796;9.210;2022-08-21T00:58:58;4.17;;;1.97;;
18702;SDS011;9481;48.796;9.210;2022-08-21T01:01:25;4.87;;;1.63;;
18702;SDS011;9481;48.796;9.210;2022-08-21T01:03:51;5.37;;;2.00;;
18702;SDS011;9481;48.796;9.210;2022-08-21T01:06:17;3.63;;;1.70;;
18702;SDS011;9481;48.796;9.210;2022-08-21T01:08:43;3.03;;;1.63;;
18702;SDS011;9481;48.796;9.210;2022-08-21T01:11:09;4.03;;;1.90;;
18702;SDS011;9481;48.796;9.210;2022-08-21T01:13:36;6.07;;;1.70;;
18702;SDS011;9481;48.796;9.210;2022-08-21T01:16:09;4.23;;;1.70;;
18702;SDS011;9481;48.796;9.210;2022-08-21T01:18:35;2.90;;;1.80;;
18702;SDS011;9481;48.796;9.210;2022-08-21T01:21:02;4.40;;;1.70;;
18702;SDS011;9481;48.796;9.210;2022-08-21T01:23:38;3.77;;;1.50;;
18702;SDS011;9481;48.796;9.210;2022-08-21T01:26:08;4.17;;;1.97;;
18702;SDS011;9481;48.796;9.210;2022-08-21T01:28:37;2.77;;;1.97;;
18702;SDS011;9481;48.796;9.210;2022-08-21T01:31:07;4.60;;;1.60;;
18702;SDS011;9481;48.796;9.210;2022-08-21T01:33:37;2.43;;;1.73;;
18702;SDS011;9481;48.796;9.210;2022-08-21T01:36:03;3.33;;;1.80;;
18702;SDS011;9481;48.796;9.210;2022-08-21T01:38:29;4.77;;;2.00;;
18702;SDS011;9481;48.796;9.210;2022-08-21T01:40:55;5.30;;;1.77;;
18702;SDS011;9481;48.796;9.210;2022-08-21T01:43:21;4.87;;;1.77;;
18702;SDS011;9481;48.796;9.210;2022-08-21T01:45:47;2.70;;;2.00;;
18702;SDS011;9481;48.796;9.210;2022-08-21T01:48:12;2.10;;;1.60;;
18702;SDS011;9481;48.796;9.210;2022-08-21T01:50:38;2.40;;;1.60;;
18702;SDS011;9481;48.796;9.210;2022-08-21T01:53:04;3.37;;;2.27;;
18702;SDS011;9481;48.796;9.210;2022-08-21T01:55:30;5.67;;;2.50;;
18702;SDS011;9481;48.796;9.210;2022-08-21T01:57:56;4.90;;;2.40;;
18702;SDS011;9481;48.796;9.210;2022-08-21T02:00:24;4.93;;;2.40;;
18702;SDS011;9481;48.796;9.210;2022-08-21T02:02:50;4.60;;;2.23;;
18702;SDS011;9481;48.796;9.210;2022-08-21T02:05:16;3.27;;;2.03;;
18702;SDS011;9481;48.796;9.210;2022-08-21T02:07:44;3.43;;;2.23;;
18702;SDS011;9481;48.796;9.210;2022-08-21T02:10:16;3.40;;;2.00;;
18702;SDS011;9481;48.796;9.210;2022-08-21T02:12:49;4.30;;;2.00;;
18702;SDS011;9481;48.796;9.210;2022-08-21T02:15:15;3.73;;;1.90;;
18702;SDS011;9481;48.796;9.210;2022-08-21T02:17:43;3.10;;;1.90;;
18702;SDS011;9481;48.796;9.210;2022-08-21T02:20:16;4.47;;;1.80;;
18702;SDS011;9481;48.796;9.210;2022-08-21T02:22:52;3.63;;;1.63;;
18702;SDS011;9481;48.796;9.210;2022-08-21T02:25:19;2.53;;;1.60;;
18702;SDS011;9481;48.796;9.210;2022-08-21T02:27:49;1.83;;;1.60;;
18702;SDS011;9481;48.796;9.210;2022-08-21T02:30:21;2.40;;;1.47;;
18702;SDS011;9481;48.796;9.210;2022-08-21T02:32:53;1.97;;;1.53;;
18702;SDS011;9481;48.796;9.210;2022-08-21T02:35:20;3.97;;;1.77;;
18702;SDS011;9481;48.796;9.210;2022-08-21T02:37:48;1.60;;;1.50;;
18702;SDS011;9481;48.796;9.210;2022-08-21T02:40:19;3.93;;;1.67;;
18702;SDS011;9481;48.796;9.210;2022-08-21T02:42:50;3.27;;;1.77;;
18702;SDS011;9481;48.796;9.210;2022-08-21T02:45:17;3.73;;;2.27;;
18702;SDS011;9481;48.796;9.210;2022-08-21T02:47:47;2.67;;;1.70;;
18702;SDS011;9481;48.796;9.210;2022-08-21T02:50:21;4.80;;;2.00;;
18702;SDS011;9481;48.796;9.210;2022-08-21T02:52:57;3.60;;;1.63;;
18702;SDS011;9481;48.796;9.210;2022-08-21T02:55:25;3.50;;;1.80;;
18702;SDS011;9481;48.796;9.210;2022-08-21T02:57:55;1.93;;;1.67;;
18702;SDS011;9481;48.796;9.210;2022-08-21T03:00:23;3.57;;;1.77;;
18702;SDS011;9481;48.796;9.210;2022-08-21T03:02:51;2.37;;;1.80;;
18702;SDS011;9481;48.796;9.210;2022-08-21T03:05:18;3.77;;;1.80;;
18702;SDS011;9481;48.796;9.210;2022-08-21T03:07:45;6.53;;;1.90;;
18702;SDS011;9481;48.796;9.210;2022-08-21T03:10:12;5.03;;;1.70;;
18702;SDS011;9481;48.796;9.210;2022-08-21T03:12:39;3.57;;;1.87;;
18702;SDS011;9481;48.796;9.210;2022-08-21T03:15:06;3.63;;;1.80;;
18702;SDS011;9481;48.796;9.210;2022-08-21T03:17:36;4.00;;;1.90;;
18702;SDS011;9481;48.796;9.210;2022-08-21T03:20:05;3.50;;;1.87;;
18702;SDS011;9481;48.796;9.210;2022-08-21T03:22:33;5.13;;;2.10;;
18702;SDS011;9481;48.796;9.210;2022-08-21T03:24:59;2.20;;;1.97;;
18702;SDS011;9481;48.796;9.210;2022-08-21T03:27:26;2.07;;;1.70;;
18702;SDS011;9481;48.796;9.210;2022-08-21T03:29:53;3.73;;;2.00;;
18702;SDS011;9481;48.796;9.210;2022-08-21T03:32:19;2.67;;;1.70;;
18702;SDS011;9481;48.796;9.210;2022-08-21T03:34:46;2.60;;;1.73;;
18702;SDS011;9481;48.796;9.210;2022-08-21T03:37:13;3.80;;;1.73;;
18702;SDS011;9481;48.796;9.210;2022-08-21T03:39:39;3.17;;;1.80;;
18702;SDS011;9481;48.796;9.210;2022-08-21T03:42:06;2.57;;;1.80;;
18702;SDS011;9481;48.796;9.210;2022-08-21T03:44:33;4.00;;;1.70;;
18702;SDS011;9481;48.796;9.210;2022-08-21T03:47:00;3.93;;;2.17;;
18702;SDS011;9481;48.796;9.210;2022-08-21T03:49:26;3.67;;;2.13;;
18702;SDS011;9481;48.796;9.210;2022-08-21T03:51:52;3.97;;;2.00;;
18702;SDS011;9481;48.796;9.210;2022-08-21T03:54:19;2.10;;;1.57;;
18702;SDS011;9481;48.796;9.210;2022-08-21T03:56:45;2.30;;;1.70;;
18702;SDS011;9481;48.796;9.210;2022-08-21T03:59:11;3.57;;;1.90;;
18702;SDS011;9481;48.796;9.210;2022-08-21T04:01:37;2.93;;;1.90;;
18702;SDS011;9481;48.796;9.210;2022-08-21T04:04:03;3.43;;;1.83;;
18702;SDS011;9481;48.796;9.210;2022-08-21T04:06:30;2.87;;;1.90;;
18702;SDS011;9481;48.796;9.210;2022-08-21T04:08:56;3.47;;;1.87;;
18702;SDS011;9481;48.796;9.210;2022-08-21T04:11:23;3.10;;;2.00;;
18702;SDS011;9481;48.796;9.210;2022-08-21T04:13:48;2.63;;;1.63;;
18702;SDS011;9481;48.796;9.210;2022-08-21T04:16:14;2.93;;;1.77;;
18702;SDS011;9481;48.796;9.210;2022-08-21T04:18:40;4.13;;;1.90;;
18702;SDS011;9481;48.796;9.210;2022-08-21T04:21:07;1.80;;;1.60;;
18702;SDS011;9481;48.796;9.210;2022-08-21T04:23:36;5.37;;;1.97;;
18702;SDS011;9481;48.796;9.210;2022-08-21T04:26:02;2.67;;;1.90;;
18702;SDS011;9481;48.796;9.210;2022-08-21T04:28:28;3.37;;;1.80;;
18702;SDS011;9481;48.796;9.210;2022-08-21T04:30:54;3.20;;;2.00;;
18702;SDS011;9481;48.796;9.210;2022-08-21T04:33:21;2.77;;;1.83;;
18702;SDS011;9481;48.796;9.210;2022-08-21T04:35:48;1.90;;;1.53;;
18702;SDS011;9481;48.796;9.210;2022-08-21T04:38:15;3.33;;;1.93;;
18702;SDS011;9481;48.796;9.210;2022-08-21T04:40:41;4.80;;;1.80;;
18702;SDS011;9481;48.796;9.210;2022-08-21T04:43:09;2.77;;;2.17;;
18702;SDS011;9481;48.796;9.210;2022-08-21T04:45:45;3.53;;;1.80;;
18702;SDS011;9481;48.796;9.210;2022-08-21T04:48:14;2.00;;;1.77;;
18702;SDS011;9481;48.796;9.210;2022-08-21T04:50:56;4.33;;;2.20;;
18702;SDS011;9481;48.796;9.210;2022-08-21T04:56:13;2.47;;;1.70;;
18702;SDS011;9481;48.796;9.210;2022-08-21T04:58:57;2.77;;;1.80;;
18702;SDS011;9481;48.796;9.210;2022-08-21T05:01:28;4.40;;;1.80;;
18702;SDS011;9481;48.796;9.210;2022-08-21T05:03:59;3.67;;;2.10;;
18702;SDS011;9481;48.796;9.210;2022-08-21T05:06:30;2.70;;;1.83;;
18702;SDS011;9481;48.796;9.210;2022-08-21T05:09:00;3.43;;;1.83;;
18702;SDS011;9481;48.796;9.210;2022-08-21T05:11:26;3.80;;;2.20;;
18702;SDS011;9481;48.796;9.210;2022-08-21T05:13:55;2.80;;;1.83;;
18702;SDS011;9481;48.796;9.210;2022-08-21T05:16:20;2.00;;;1.80;;
18702;SDS011;9481;48.796;9.210;2022-08-21T05:18:46;4.43;;;1.87;;
18702;SDS011;9481;48.796;9.210;2022-08-21T05:21:12;2.70;;;1.87;;
18702;SDS011;9481;48.796;9.210;2022-08-21T05:23:37;3.23;;;2.00;;
18702;SDS011;9481;48.796;9.210;2022-08-21T05:26:03;6.03;;;1.97;;
18702;SDS011;9481;48.796;9.210;2022-08-21T05:28:29;2.87;;;1.80;;
18702;SDS011;9481;48.796;9.210;2022-08-21T05:30:56;4.27;;;2.20;;
18702;SDS011;9481;48.796;9.210;2022-08-21T05:33:22;5.17;;;2.13;;
18702;SDS011;9481;48.796;9.210;2022-08-21T05:35:52;4.30;;;2.00;;
18702;SDS011;9481;48.796;9.210;2022-08-21T05:38:22;2.73;;;1.80;;
18702;SDS011;9481;48.796;9.210;2022-08-21T05:40:50;2.43;;;1.53;;
18702;SDS011;9481;48.796;9.210;2022-08-21T05:43:15;3.23;;;1.70;;
18702;SDS011;9481;48.796;9.210;2022-08-21T05:45:41;3.77;;;1.80;;
18702;SDS011;9481;48.796;9.210;2022-08-21T05:48:08;2.27;;;1.60;;
18702;SDS011;9481;48.796;9.210;2022-08-21T05:50:35;5.43;;;2.03;;
18702;SDS011;9481;48.796;9.210;2022-08-21T05:53:02;2.93;;;1.90;;
18702;SDS011;9481;48.796;9.210;2022-08-21T05:55:29;3.37;;;1.97;;
18702;SDS011;9481;48.796;9.210;2022-08-21T05:57:55;3.07;;;1.97;;
18702;SDS011;9481;48.796;9.210;2022-08-21T06:00:21;3.47;;;2.00;;
18702;SDS011;9481;48.796;9.210;2022-08-21T06:02:48;6.40;;;1.77;;
18702;SDS011;9481;48.796;9.210;2022-08-21T06:05:15;2.53;;;1.90;;
18702;SDS011;9481;48.796;9.210;2022-08-21T06:07:42;3.67;;;2.00;;
18702;SDS011;9481;48.796;9.210;2022-08-21T06:10:09;3.40;;;2.10;;
18702;SDS011;9481;48.796;9.210;2022-08-21T06:12:35;3.33;;;2.20;;
18702;SDS011;9481;48.796;9.210;2022-08-21T06:15:01;2.87;;;1.50;;
18702;SDS011;9481;48.796;9.210;2022-08-21T06:17:28;3.30;;;1.80;;
18702;SDS011;9481;48.796;9.210;2022-08-21T06:19:54;5.03;;;1.93;;
18702;SDS011;9481;48.796;9.210;2022-08-21T06:22:19;3.87;;;2.00;;
18702;SDS011;9481;48.796;9.210;2022-08-21T06:24:45;3.00;;;2.03;;
18702;SDS011;9481;48.796;9.210;2022-08-21T06:27:12;3.23;;;1.90;;
18702;SDS011;9481;48.796;9.210;2022-08-21T06:29:38;3.10;;;2.00;;
18702;SDS011;9481;48.796;9.210;2022-08-21T06:32:04;2.17;;;1.80;;
18702;SDS011;9481;48.796;9.210;2022-08-21T06:34:37;2.43;;;1.90;;
18702;SDS011;9481;48.796;9.210;2022-08-21T06:37:04;1.53;;;1.43;;
18702;SDS011;9481;48.796;9.210;2022-08-21T06:39:31;3.67;;;1.83;;
18702;SDS011;9481;48.796;9.210;2022-08-21T06:41:57;4.93;;;1.70;;
18702;SDS011;9481;48.796;9.210;2022-08-21T06:44:23;2.10;;;1.67;;
18702;SDS011;9481;48.796;9.210;2022-08-21T06:46:48;3.27;;;2.30;;
18702;SDS011;9481;48.796;9.210;2022-08-21T06:49:14;2.80;;;1.87;;
18702;SDS011;9481;48.796;9.210;2022-08-21T06:51:40;4.90;;;2.00;;
18702;SDS011;9481;48.796;9.210;2022-08-21T06:54:05;5.37;;;2.17;;
18702;SDS011;9481;48.796;9.210;2022-08-21T06:56:31;4.33;;;2.00;;
18702;SDS011;9481;48.796;9.210;2022-08-21T06:58:58;4.30;;;1.97;;
18702;SDS011;9481;48.796;9.210;2022-08-21T07:01:25;5.67;;;2.27;;
18702;SDS011;9481;48.796;9.210;2022-08-21T07:03:52;3.50;;;1.90;;
18702;SDS011;9481;48.796;9.210;2022-08-21T07:06:18;4.40;;;2.00;;
18702;SDS011;9481;48.796;9.210;2022-08-21T07:08:43;3.43;;;2.37;;
18702;SDS011;9481;48.796;9.210;2022-08-21T07:11:27;5.10;;;2.60;;
18702;SDS011;9481;48.796;9.210;2022-08-21T07:13:53;2.33;;;1.87;;
18702;SDS011;9481;48.796;9.210;2022-08-21T07:16:21;4.00;;;2.10;;
18702;SDS011;9481;48.796;9.210;2022-08-21T07:18:47;4.60;;;2.40;;
18702;SDS011;9481;48.796;9.210;2022-08-21T07:21:14;6.97;;;2.07;;
18702;SDS011;9481;48.796;9.210;2022-08-21T07:23:42;4.30;;;2.27;;
18702;SDS011;9481;48.796;9.210;2022-08-21T07:26:15;2.93;;;2.20;;
18702;SDS011;9481;48.796;9.210;2022-08-21T07:28:44;5.47;;;2.73;;
18702;SDS011;9481;48.796;9.210;2022-08-21T07:31:10;7.90;;;3.10;;
18702;SDS011;9481;48.796;9.210;2022-08-21T07:33:41;3.97;;;2.20;;
18702;SDS011;9481;48.796;9.210;2022-08-21T07:36:08;4.07;;;2.37;;
18702;SDS011;9481;48.796;9.210;2022-08-21T07:38:34;6.17;;;2.90;;
18702;SDS011;9481;48.796;9.210;2022-08-21T07:41:00;3.33;;;2.30;;
18702;SDS011;9481;48.796;9.210;2022-08-21T07:43:38;4.63;;;2.33;;
18702;SDS011;9481;48.796;9.210;2022-08-21T07:46:04;3.63;;;2.23;;
18702;SDS011;9481;48.796;9.210;2022-08-21T07:48:30;3.57;;;2.30;;
18702;SDS011;9481;48.796;9.210;2022-08-21T07:50:55;4.60;;;2.43;;
18702;SDS011;9481;48.796;9.210;2022-08-21T07:53:21;4.13;;;2.30;;
18702;SDS011;9481;48.796;9.210;2022-08-21T07:55:47;3.17;;;2.27;;
18702;SDS011;9481;48.796;9.210;2022-08-21T07:58:12;5.40;;;2.63;;
18702;SDS011;9481;48.796;9.210;2022-08-21T08:00:38;5.20;;;2.43;;
18702;SDS011;9481;48.796;9.210;2022-08-21T08:03:05;4.67;;;2.50;;
18702;SDS011;9481;48.796;9.210;2022-08-21T08:05:31;2.97;;;2.17;;
18702;SDS011;9481;48.796;9.210;2022-08-21T08:07:57;7.67;;;2.40;;
18702;SDS011;9481;48.796;9.210;2022-08-21T08:10:24;3.33;;;2.37;;
18702;SDS011;9481;48.796;9.210;2022-08-21T08:12:51;5.00;;;2.67;;
18702;SDS011;9481;48.796;9.210;2022-08-21T08:15:21;3.80;;;2.47;;
18702;SDS011;9481;48.796;9.210;2022-08-21T08:17:50;4.40;;;2.23;;
18702;SDS011;9481;48.796;9.210;2022-08-21T08:20:17;4.53;;;2.83;;
18702;SDS011;9481;48.796;9.210;2022-08-21T08:22:44;3.37;;;2.47;;
18702;SDS011;9481;48.796;9.210;2022-08-21T08:25:11;3.87;;;2.30;;
18702;SDS011;9481;48.796;9.210;2022-08-21T08:27:39;4.90;;;2.80;;
18702;SDS011;9481;48.796;9.210;2022-08-21T08:30:06;3.60;;;2.47;;
18702;SDS011;9481;48.796;9.210;2022-08-21T08:32:35;4.20;;;2.20;;
18702;SDS011;9481;48.796;9.210;2022-08-21T08:35:02;4.47;;;2.60;;
18702;SDS011;9481;48.796;9.210;2022-08-21T08:37:29;3.57;;;2.70;;
18702;SDS011;9481;48.796;9.210;2022-08-21T08:39:55;3.43;;;2.40;;
18702;SDS011;9481;48.796;9.210;2022-08-21T08:44:57;4.30;;;2.30;;
18702;SDS011;9481;48.796;9.210;2022-08-21T08:47:49;6.13;;;2.70;;
18702;SDS011;9481;48.796;9.210;2022-08-21T08:50:38;5.57;;;2.80;;
18702;SDS011;9481;48.796;9.210;2022-08-21T08:53:13;5.43;;;2.70;;
18702;SDS011;9481;48.796;9.210;2022-08-21T08:55:49;5.57;;;2.83;;
18702;SDS011;9481;48.796;9.210;2022-08-21T08:58:24;6.33;;;2.83;;
18702;SDS011;9481;48.796;9.210;2022-08-21T09:00:58;4.20;;;2.43;;
18702;SDS011;9481;48.796;9.210;2022-08-21T09:03:24;4.63;;;2.57;;
18702;SDS011;9481;48.796;9.210;2022-08-21T09:05:58;6.50;;;2.70;;
18702;SDS011;9481;48.796;9.210;2022-08-21T09:12:03;2.97;;;2.30;;
18702;SDS011;9481;48.796;9.210;2022-08-21T09:21:16;4.93;;;2.57;;
18702;SDS011;9481;48.796;9.210;2022-08-21T09:24:39;5.70;;;2.70;;
18702;SDS011;9481;48.796;9.210;2022-08-21T09:27:14;3.77;;;2.57;;
18702;SDS011;9481;48.796;9.210;2022-08-21T09:29:47;5.00;;;2.90;;
18702;SDS011;9481;48.796;9.210;2022-08-21T09:32:20;4.97;;;2.50;;
18702;SDS011;9481;48.796;9.210;2022-08-21T09:34:56;4.33;;;2.57;;
18702;SDS011;9481;48.796;9.210;2022-08-21T09:37:29;3.77;;;2.60;;
18702;SDS011;9481;48.796;9.210;2022-08-21T09:39:59;5.87;;;3.00;;
18702;SDS011;9481;48.796;9.210;2022-08-21T09:42:29;5.90;;;2.60;;
18702;SDS011;9481;48.796;9.210;2022-08-21T09:45:30;4.57;;;2.60;;
18702;SDS011;9481;48.796;9.210;2022-08-21T09:47:49;3.70;;;2.73;;
18702;SDS011;9481;48.796;9.210;2022-08-21T09:50:20;4.43;;;2.73;;
18702;SDS011;9481;48.796;9.210;2022-08-21T09:52:56;4.43;;;2.50;;
18702;SDS011;9481;48.796;9.210;2022-08-21T09:55:31;4.27;;;2.60;;
18702;SDS011;9481;48.796;9.210;2022-08-21T09:58:29;8.00;;;2.83;;
18702;SDS011;9481;48.796;9.210;2022-08-21T10:01:00;3.60;;;2.67;;
18702;SDS011;9481;48.796;9.210;2022-08-21T10:03:29;7.10;;;2.80;;
18702;SDS011;9481;48.796;9.210;2022-08-21T10:06:02;6.00;;;3.03;;
18702;SDS011;9481;48.796;9.210;2022-08-21T10:08:34;5.83;;;2.97;;
18702;SDS011;9481;48.796;9.210;2022-08-21T10:11:09;3.70;;;2.70;;
18702;SDS011;9481;48.796;9.210;2022-08-21T10:13:52;8.17;;;2.87;;
18702;SDS011;9481;48.796;9.210;2022-08-21T10:16:50;5.70;;;3.00;;
18702;SDS011;9481;48.796;9.210;2022-08-21T10:19:43;5.83;;;3.13;;
18702;SDS011;9481;48.796;9.210;2022-08-21T10:28:21;4.27;;;2.53;;
18702;SDS011;9481;48.796;9.210;2022-08-21T10:31:18;4.57;;;2.87;;
18702;SDS011;9481;48.796;9.210;2022-08-21T10:34:06;5.37;;;2.77;;
18702;SDS011;9481;48.796;9.210;2022-08-21T10:39:52;4.27;;;2.87;;
18702;SDS011;9481;48.796;9.210;2022-08-21T10:48:46;4.60;;;2.80;;
18702;SDS011;9481;48.796;9.210;2022-08-21T10:51:26;3.67;;;2.50;;
18702;SDS011;9481;48.796;9.210;2022-08-21T10:54:11;4.23;;;2.40;;
18702;SDS011;9481;48.796;9.210;2022-08-21T10:58:39;4.20;;;2.53;;
18702;SDS011;9481;48.796;9.210;2022-08-21T11:04:18;5.53;;;2.63;;
18702;SDS011;9481;48.796;9.210;2022-08-21T11:06:52;4.43;;;2.40;;
18702;SDS011;9481;48.796;9.210;2022-08-21T11:09:26;8.97;;;2.23;;
18702;SDS011;9481;48.796;9.210;2022-08-21T11:12:01;4.20;;;2.90;;
18702;SDS011;9481;48.796;9.210;2022-08-21T11:14:55;3.20;;;2.37;;
18702;SDS011;9481;48.796;9.210;2022-08-21T11:17:37;4.53;;;2.70;;
18702;SDS011;9481;48.796;9.210;2022-08-21T11:20:13;4.47;;;2.80;;
18702;SDS011;9481;48.796;9.210;2022-08-21T11:23:02;4.83;;;2.50;;
18702;SDS011;9481;48.796;9.210;2022-08-21T11:25:49;5.37;;;2.30;;
18702;SDS011;9481;48.796;9.210;2022-08-21T11:31:23;5.30;;;2.53;;
18702;SDS011;9481;48.796;9.210;2022-08-21T11:40:57;5.13;;;2.60;;
18702;SDS011;9481;48.796;9.210;2022-08-21T11:44:00;4.13;;;2.50;;
18702;SDS011;9481;48.796;9.210;2022-08-21T11:46:47;3.43;;;2.17;;
18702;SDS011;9481;48.796;9.210;2022-08-21T11:52:40;6.87;;;2.63;;
18702;SDS011;9481;48.796;9.210;2022-08-21T11:55:41;6.87;;;2.90;;
18702;SDS011;9481;48.796;9.210;2022-08-21T11:58:38;4.70;;;2.13;;
18702;SDS011;9481;48.796;9.210;2022-08-21T12:01:11;4.00;;;2.50;;
18702;SDS011;9481;48.796;9.210;2022-08-21T12:03:51;4.97;;;2.47;;
18702;SDS011;9481;48.796;9.210;2022-08-21T12:07:08;3.40;;;2.20;;
18702;SDS011;9481;48.796;9.210;2022-08-21T12:11:50;4.00;;;2.70;;
18702;SDS011;9481;48.796;9.210;2022-08-21T12:14:47;5.33;;;2.40;;
18702;SDS011;9481;48.796;9.210;2022-08-21T12:17:19;2.60;;;2.00;;
18702;SDS011;9481;48.796;9.210;2022-08-21T12:19:59;5.23;;;2.50;;
18702;SDS011;9481;48.796;9.210;2022-08-21T12:22:49;2.80;;;1.90;;
18702;SDS011;9481;48.796;9.210;2022-08-21T12:25:26;2.33;;;1.90;;
18702;SDS011;9481;48.796;9.210;2022-08-21T12:28:08;3.53;;;2.53;;
18702;SDS011;9481;48.796;9.210;2022-08-21T12:30:39;5.07;;;2.60;;
18702;SDS011;9481;48.796;9.210;2022-08-21T12:36:11;3.27;;;2.20;;
18702;SDS011;9481;48.796;9.210;2022-08-21T12:38:48;4.00;;;2.30;;
18702;SDS011;9481;48.796;9.210;2022-08-21T12:41:31;5.50;;;2.67;;
18702;SDS011;9481;48.796;9.210;2022-08-21T12:44:14;3.53;;;2.43;;
18702;SDS011;9481;48.796;9.210;2022-08-21T12:46:46;2.77;;;2.20;;
18702;SDS011;9481;48.796;9.210;2022-08-21T12:49:35;4.53;;;2.50;;
18702;SDS011;9481;48.796;9.210;2022-08-21T12:52:19;2.73;;;2.13;;
18702;SDS011;9481;48.796;9.210;2022-08-21T12:54:49;3.83;;;2.43;;
18702;SDS011;9481;48.796;9.210;2022-08-21T12:57:19;5.40;;;2.50;;
18702;SDS011;9481;48.796;9.210;2022-08-21T12:59:57;3.70;;;2.50;;
18702;SDS011;9481;48.796;9.210;2022-08-21T13:02:38;3.37;;;2.10;;
18702;SDS011;9481;48.796;9.210;2022-08-21T13:05:14;4.67;;;2.57;;
18702;SDS011;9481;48.796;9.210;2022-08-21T13:07:48;5.47;;;2.67;;
18702;SDS011;9481;48.796;9.210;2022-08-21T13:10:20;3.90;;;2.70;;
18702;SDS011;9481;48.796;9.210;2022-08-21T13:12:58;5.33;;;2.10;;
18702;SDS011;9481;48.796;9.210;2022-08-21T13:15:31;2.50;;;2.30;;
18702;SDS011;9481;48.796;9.210;2022-08-21T13:18:02;4.20;;;2.40;;
18702;SDS011;9481;48.796;9.210;2022-08-21T13:20:35;3.77;;;2.33;;
18702;SDS011;9481;48.796;9.210;2022-08-21T13:23:07;2.90;;;2.43;;
18702;SDS011;9481;48.796;9.210;2022-08-21T13:25:55;3.27;;;2.30;;
18702;SDS011;9481;48.796;9.210;2022-08-21T13:28:23;4.57;;;2.30;;
18702;SDS011;9481;48.796;9.210;2022-08-21T13:30:58;3.23;;;2.13;;
18702;SDS011;9481;48.796;9.210;2022-08-21T13:33:26;3.33;;;2.33;;
18702;SDS011;9481;48.796;9.210;2022-08-21T13:38:31;2.70;;;2.10;;
18702;SDS011;9481;48.796;9.210;2022-08-21T13:43:43;3.67;;;2.37;;
18702;SDS011;9481;48.796;9.210;2022-08-21T13:46:13;3.43;;;2.17;;
18702;SDS011;9481;48.796;9.210;2022-08-21T13:48:40;7.07;;;2.77;;
18702;SDS011;9481;48.796;9.210;2022-08-21T13:51:07;2.43;;;2.17;;
18702;SDS011;9481;48.796;9.210;2022-08-21T13:56:06;4.20;;;2.30;;
18702;SDS011;9481;48.796;9.210;2022-08-21T13:58:33;2.77;;;2.40;;
18702;SDS011;9481;48.796;9.210;2022-08-21T14:01:20;4.03;;;2.63;;
18702;SDS011;9481;48.796;9.210;2022-08-21T14:04:01;4.60;;;2.43;;
18702;SDS011;9481;48.796;9.210;2022-08-21T14:06:33;3.83;;;2.57;;
18702;SDS011;9481;48.796;9.210;2022-08-21T14:09:09;3.93;;;2.57;;
18702;SDS011;9481;48.796;9.210;2022-08-21T14:11:40;3.43;;;2.37;;
18702;SDS011;9481;48.796;9.210;2022-08-21T14:14:19;3.57;;;2.43;;
18702;SDS011;9481;48.796;9.210;2022-08-21T14:16:58;3.60;;;2.33;;
18702;SDS011;9481;48.796;9.210;2022-08-21T14:19:44;5.73;;;2.40;;
18702;SDS011;9481;48.796;9.210;2022-08-21T14:25:00;3.17;;;2.27;;
18702;SDS011;9481;48.796;9.210;2022-08-21T14:27:38;2.90;;;2.43;;
18702;SDS011;9481;48.796;9.210;2022-08-21T14:30:39;4.87;;;2.70;;
18702;SDS011;9481;48.796;9.210;2022-08-21T14:33:08;6.43;;;2.50;;
18702;SDS011;9481;48.796;9.210;2022-08-21T14:35:38;3.83;;;2.47;;
18702;SDS011;9481;48.796;9.210;2022-08-21T14:38:39;2.83;;;2.27;;
18702;SDS011;9481;48.796;9.210;2022-08-21T14:41:03;3.13;;;2.13;;
18702;SDS011;9481;48.796;9.210;2022-08-21T14:43:43;4.83;;;2.40;;
18702;SDS011;9481;48.796;9.210;2022-08-21T14:46:11;3.27;;;2.37;;
18702;SDS011;9481;48.796;9.210;2022-08-21T14:48:45;4.03;;;2.40;;
18702;SDS011;9481;48.796;9.210;2022-08-21T14:51:11;4.57;;;2.53;;
18702;SDS011;9481;48.796;9.210;2022-08-21T14:53:38;3.90;;;2.37;;
18702;SDS011;9481;48.796;9.210;2022-08-21T14:56:05;3.23;;;2.50;;
18702;SDS011;9481;48.796;9.210;2022-08-21T14:58:35;5.03;;;2.60;;
18702;SDS011;9481;48.796;9.210;2022-08-21T15:01:13;4.50;;;2.63;;
18702;SDS011;9481;48.796;9.210;2022-08-21T15:03:43;4.20;;;2.33;;
18702;SDS011;9481;48.796;9.210;2022-08-21T15:06:10;3.43;;;2.40;;
18702;SDS011;9481;48.796;9.210;2022-08-21T15:08:37;2.90;;;2.20;;
18702;SDS011;9481;48.796;9.210;2022-08-21T15:11:03;5.73;;;2.60;;
18702;SDS011;9481;48.796;9.210;2022-08-21T15:13:30;5.13;;;2.70;;
18702;SDS011;9481;48.796;9.210;2022-08-21T15:15:57;4.20;;;2.97;;
18702;SDS011;9481;48.796;9.210;2022-08-21T15:18:24;3.27;;;2.50;;
18702;SDS011;9481;48.796;9.210;2022-08-21T15:20:51;3.90;;;2.53;;
18702;SDS011;9481;48.796;9.210;2022-08-21T15:23:17;3.17;;;2.63;;
18702;SDS011;9481;48.796;9.210;2022-08-21T15:25:44;2.83;;;2.17;;
18702;SDS011;9481;48.796;9.210;2022-08-21T15:28:13;5.90;;;2.67;;
18702;SDS011;9481;48.796;9.210;2022-08-21T15:30:40;4.03;;;2.53;;
18702;SDS011;9481;48.796;9.210;2022-08-21T15:33:07;3.80;;;2.60;;
18702;SDS011;9481;48.796;9.210;2022-08-21T15:35:34;5.07;;;2.50;;
18702;SDS011;9481;48.796;9.210;2022-08-21T15:38:00;4.50;;;2.57;;
18702;SDS011;9481;48.796;9.210;2022-08-21T15:40:26;3.17;;;2.17;;
18702;SDS011;9481;48.796;9.210;2022-08-21T15:42:55;5.17;;;2.73;;
18702;SDS011;9481;48.796;9.210;2022-08-21T15:45:24;4.73;;;2.13;;
18702;SDS011;9481;48.796;9.210;2022-08-21T15:47:52;3.90;;;2.40;;
18702;SDS011;9481;48.796;9.210;2022-08-21T15:50:18;3.97;;;2.47;;
18702;SDS011;9481;48.796;9.210;2022-08-21T15:52:45;4.40;;;2.90;;
18702;SDS011;9481;48.796;9.210;2022-08-21T15:55:11;3.40;;;2.30;;
18702;SDS011;9481;48.796;9.210;2022-08-21T15:57:37;3.77;;;2.50;;
18702;SDS011;9481;48.796;9.210;2022-08-21T16:00:13;2.63;;;2.40;;
18702;SDS011;9481;48.796;9.210;2022-08-21T16:02:45;5.00;;;2.40;;
18702;SDS011;9481;48.796;9.210;2022-08-21T16:05:14;3.97;;;2.40;;
18702;SDS011;9481;48.796;9.210;2022-08-21T16:07:42;4.83;;;2.53;;
18702;SDS011;9481;48.796;9.210;2022-08-21T16:10:09;3.23;;;2.57;;
18702;SDS011;9481;48.796;9.210;2022-08-21T16:12:37;4.37;;;2.30;;
18702;SDS011;9481;48.796;9.210;2022-08-21T16:15:08;4.30;;;2.47;;
18702;SDS011;9481;48.796;9.210;2022-08-21T16:17:39;8.03;;;2.50;;
18702;SDS011;9481;48.796;9.210;2022-08-21T16:20:09;4.23;;;2.57;;
18702;SDS011;9481;48.796;9.210;2022-08-21T16:22:39;3.73;;;2.40;;
18702;SDS011;9481;48.796;9.210;2022-08-21T16:25:06;3.97;;;2.33;;
18702;SDS011;9481;48.796;9.210;2022-08-21T16:27:33;4.30;;;2.37;;
18702;SDS011;9481;48.796;9.210;2022-08-21T16:30:00;3.47;;;2.17;;
18702;SDS011;9481;48.796;9.210;2022-08-21T16:32:28;3.73;;;2.37;;